sensor_id;sensor_type;location;lat;lon;timestamp;P1;durP1;ratioP1;P2;durP2;ratioP2
16975;SDS011;8604;48.148;-1.786;2023-08-21T00:00:02;6.80;;;1.80;;
16975;SDS011;8604;48.148;-1.786;2023-08-21T00:02:31;5.40;;;1.63;;
16975;SDS011;8604;48.148;-1.786;2023-08-21T00:05:00;6.53;;;2.00;;
16975;SDS011;8604;48.148;-1.786;2023-08-21T00:07:28;5.60;;;1.50;;
16975;SDS011;8604;48.148;-1.786;2023-08-21T00:09:58;6.90;;;1.80;;
16975;SDS011;8604;48.148;-1.786;2023-08-21T00:12:26;6.33;;;1.80;;
16975;SDS011;8604;48.148;-1.786;2023-08-21T00:14:55;5.20;;;1.80;;
16975;SDS011;8604;48.148;-1.786;2023-08-21T00:17:23;6.27;;;1.90;;
16975;SDS011;8604;48.148;-1.786;2023-08-21T00:19:51;5.47;;;1.90;;
16975;SDS011;8604;48.148;-1.786;2023-08-21T00:22:20;7.30;;;1.80;;
16975;SDS011;8604;48.148;-1.786;2023-08-21T00:24:48;5.57;;;1.80;;
16975;SDS011;8604;48.148;-1.786;2023-08-21T00:27:18;8.60;;;1.83;;
16975;SDS011;8604;48.148;-1.786;2023-08-21T00:29:46;5.77;;;1.80;;
16975;SDS011;8604;48.148;-1.786;2023-08-21T00:32:14;7.53;;;2.00;;
16975;SDS011;8604;48.148;-1.786;2023-08-21T00:34:43;5.40;;;1.73;;
16975;SDS011;8604;48.148;-1.786;2023-08-21T00:37:11;7.57;;;1.80;;
16975;SDS011;8604;48.148;-1.786;2023-08-21T00:39:40;6.93;;;1.77;;
16975;SDS011;8604;48.148;-1.786;2023-08-21T00:42:08;6.23;;;1.80;;
16975;SDS011;8604;48.148;-1.786;2023-08-21T00:44:38;6.40;;;2.00;;
16975;SDS011;8604;48.148;-1.786;2023-08-21T00:47:06;6.23;;;1.70;;
16975;SDS011;8604;48.148;-1.786;2023-08-21T00:49:35;6.47;;;1.90;;
16975;SDS011;8604;48.148;-1.786;2023-08-21T00:52:05;6.83;;;2.00;;
16975;SDS011;8604;48.148;-1.786;2023-08-21T00:54:36;6.27;;;2.03;;
16975;SDS011;8604;48.148;-1.786;2023-08-21T00:57:05;5.40;;;1.67;;
16975;SDS011;8604;48.148;-1.786;2023-08-21T00:59:35;6.47;;;1.93;;
16975;SDS011;8604;48.148;-1.786;2023-08-21T01:02:05;6.90;;;2.00;;
16975;SDS011;8604;48.148;-1.786;2023-08-21T01:04:33;7.43;;;2.03;;
16975;SDS011;8604;48.148;-1.786;2023-08-21T01:07:02;6.20;;;2.00;;
16975;SDS011;8604;48.148;-1.786;2023-08-21T01:09:36;5.43;;;1.90;;
16975;SDS011;8604;48.148;-1.786;2023-08-21T01:12:12;7.27;;;2.43;;
16975;SDS011;8604;48.148;-1.786;2023-08-21T01:14:50;6.47;;;2.00;;
16975;SDS011;8604;48.148;-1.786;2023-08-21T01:17:24;6.80;;;2.03;;
16975;SDS011;8604;48.148;-1.786;2023-08-21T01:19:53;7.17;;;2.40;;
16975;SDS011;8604;48.148;-1.786;2023-08-21T01:22:25;5.10;;;1.90;;
16975;SDS011;8604;48.148;-1.786;2023-08-21T01:24:55;7.37;;;2.10;;
16975;SDS011;8604;48.148;-1.786;2023-08-21T01:27:23;7.90;;;2.00;;
16975;SDS011;8604;48.148;-1.786;2023-08-21T01:29:52;5.67;;;1.97;;
16975;SDS011;8604;48.148;-1.786;2023-08-21T01:32:23;7.20;;;2.30;;
16975;SDS011;8604;48.148;-1.786;2023-08-21T01:35:00;9.63;;;3.20;;
16975;SDS011;8604;48.148;-1.786;2023-08-21T01:37:30;8.13;;;2.40;;
16975;SDS011;8604;48.148;-1.786;2023-08-21T01:40:00;5.23;;;2.07;;
16975;SDS011;8604;48.148;-1.786;2023-08-21T01:42:28;6.90;;;1.90;;
16975;SDS011;8604;48.148;-1.786;2023-08-21T01:44:57;7.37;;;2.20;;
16975;SDS011;8604;48.148;-1.786;2023-08-21T01:47:27;6.20;;;2.30;;
16975;SDS011;8604;48.148;-1.786;2023-08-21T01:49:56;8.17;;;2.60;;
16975;SDS011;8604;48.148;-1.786;2023-08-21T01:52:24;7.20;;;2.30;;
16975;SDS011;8604;48.148;-1.786;2023-08-21T01:54:52;6.20;;;2.10;;
16975;SDS011;8604;48.148;-1.786;2023-08-21T01:57:22;7.40;;;2.37;;
16975;SDS011;8604;48.148;-1.786;2023-08-21T01:59:50;6.80;;;2.20;;
16975;SDS011;8604;48.148;-1.786;2023-08-21T02:02:19;7.20;;;2.43;;
16975;SDS011;8604;48.148;-1.786;2023-08-21T02:04:47;5.97;;;2.33;;
16975;SDS011;8604;48.148;-1.786;2023-08-21T02:07:16;5.80;;;2.43;;
16975;SDS011;8604;48.148;-1.786;2023-08-21T02:09:44;7.30;;;2.30;;
16975;SDS011;8604;48.148;-1.786;2023-08-21T02:12:12;6.17;;;2.40;;
16975;SDS011;8604;48.148;-1.786;2023-08-21T02:14:42;7.67;;;2.63;;
16975;SDS011;8604;48.148;-1.786;2023-08-21T02:17:10;4.77;;;2.20;;
16975;SDS011;8604;48.148;-1.786;2023-08-21T02:19:39;5.03;;;2.27;;
16975;SDS011;8604;48.148;-1.786;2023-08-21T02:22:07;6.77;;;2.50;;
16975;SDS011;8604;48.148;-1.786;2023-08-21T02:24:36;6.97;;;2.40;;
16975;SDS011;8604;48.148;-1.786;2023-08-21T02:27:05;8.87;;;2.50;;
16975;SDS011;8604;48.148;-1.786;2023-08-21T02:29:33;6.80;;;2.40;;
16975;SDS011;8604;48.148;-1.786;2023-08-21T02:32:03;7.23;;;2.67;;
16975;SDS011;8604;48.148;-1.786;2023-08-21T02:34:32;10.33;;;3.07;;
16975;SDS011;8604;48.148;-1.786;2023-08-21T02:37:00;7.03;;;2.73;;
16975;SDS011;8604;48.148;-1.786;2023-08-21T02:39:29;8.53;;;3.00;;
16975;SDS011;8604;48.148;-1.786;2023-08-21T02:41:57;10.47;;;2.87;;
16975;SDS011;8604;48.148;-1.786;2023-08-21T02:44:26;8.57;;;3.10;;
16975;SDS011;8604;48.148;-1.786;2023-08-21T02:46:54;8.70;;;3.03;;
16975;SDS011;8604;48.148;-1.786;2023-08-21T02:49:24;7.07;;;3.00;;
16975;SDS011;8604;48.148;-1.786;2023-08-21T02:51:52;7.90;;;3.00;;
16975;SDS011;8604;48.148;-1.786;2023-08-21T02:54:21;7.07;;;2.70;;
16975;SDS011;8604;48.148;-1.786;2023-08-21T02:56:49;9.93;;;2.97;;
16975;SDS011;8604;48.148;-1.786;2023-08-21T02:59:17;5.17;;;2.60;;
16975;SDS011;8604;48.148;-1.786;2023-08-21T03:01:46;7.63;;;2.90;;
16975;SDS011;8604;48.148;-1.786;2023-08-21T03:04:14;7.27;;;2.73;;
16975;SDS011;8604;48.148;-1.786;2023-08-21T03:06:44;7.30;;;2.60;;
16975;SDS011;8604;48.148;-1.786;2023-08-21T03:09:12;7.67;;;2.80;;
16975;SDS011;8604;48.148;-1.786;2023-08-21T03:11:41;7.07;;;2.77;;
16975;SDS011;8604;48.148;-1.786;2023-08-21T03:14:09;9.10;;;2.97;;
16975;SDS011;8604;48.148;-1.786;2023-08-21T03:16:37;7.70;;;3.07;;
16975;SDS011;8604;48.148;-1.786;2023-08-21T03:19:06;6.80;;;2.77;;
16975;SDS011;8604;48.148;-1.786;2023-08-21T03:21:34;6.07;;;2.77;;
16975;SDS011;8604;48.148;-1.786;2023-08-21T03:24:05;5.87;;;2.77;;
16975;SDS011;8604;48.148;-1.786;2023-08-21T03:26:34;8.60;;;3.20;;
16975;SDS011;8604;48.148;-1.786;2023-08-21T03:29:03;6.50;;;2.87;;
16975;SDS011;8604;48.148;-1.786;2023-08-21T03:31:31;8.27;;;3.13;;
16975;SDS011;8604;48.148;-1.786;2023-08-21T03:34:00;8.20;;;3.07;;
16975;SDS011;8604;48.148;-1.786;2023-08-21T03:36:28;7.97;;;3.00;;
16975;SDS011;8604;48.148;-1.786;2023-08-21T03:39:00;8.47;;;3.40;;
16975;SDS011;8604;48.148;-1.786;2023-08-21T03:41:34;9.40;;;3.37;;
16975;SDS011;8604;48.148;-1.786;2023-08-21T03:44:02;12.23;;;4.10;;
16975;SDS011;8604;48.148;-1.786;2023-08-21T03:46:31;12.60;;;4.70;;
16975;SDS011;8604;48.148;-1.786;2023-08-21T03:48:59;12.70;;;5.07;;
16975;SDS011;8604;48.148;-1.786;2023-08-21T03:51:28;13.47;;;5.00;;
16975;SDS011;8604;48.148;-1.786;2023-08-21T03:53:56;31.77;;;6.77;;
16975;SDS011;8604;48.148;-1.786;2023-08-21T03:56:24;14.37;;;5.33;;
16975;SDS011;8604;48.148;-1.786;2023-08-21T03:58:55;12.83;;;5.23;;
16975;SDS011;8604;48.148;-1.786;2023-08-21T04:01:42;18.47;;;6.20;;
16975;SDS011;8604;48.148;-1.786;2023-08-21T04:04:10;11.37;;;5.33;;
16975;SDS011;8604;48.148;-1.786;2023-08-21T04:06:38;19.70;;;6.63;;
16975;SDS011;8604;48.148;-1.786;2023-08-21T04:09:07;19.53;;;5.80;;
16975;SDS011;8604;48.148;-1.786;2023-08-21T04:11:35;12.93;;;5.43;;
16975;SDS011;8604;48.148;-1.786;2023-08-21T04:14:06;12.77;;;5.10;;
16975;SDS011;8604;48.148;-1.786;2023-08-21T04:16:34;15.33;;;5.43;;
16975;SDS011;8604;48.148;-1.786;2023-08-21T04:19:02;11.90;;;5.00;;
16975;SDS011;8604;48.148;-1.786;2023-08-21T04:21:31;12.03;;;5.33;;
16975;SDS011;8604;48.148;-1.786;2023-08-21T04:23:59;13.40;;;5.40;;
16975;SDS011;8604;48.148;-1.786;2023-08-21T04:26:28;13.10;;;5.50;;
16975;SDS011;8604;48.148;-1.786;2023-08-21T04:28:57;12.37;;;5.00;;
16975;SDS011;8604;48.148;-1.786;2023-08-21T04:31:27;18.47;;;5.50;;
16975;SDS011;8604;48.148;-1.786;2023-08-21T04:33:55;20.00;;;5.90;;
16975;SDS011;8604;48.148;-1.786;2023-08-21T04:36:24;13.20;;;4.97;;
16975;SDS011;8604;48.148;-1.786;2023-08-21T04:38:52;11.60;;;5.43;;
16975;SDS011;8604;48.148;-1.786;2023-08-21T04:41:20;8.67;;;4.60;;
16975;SDS011;8604;48.148;-1.786;2023-08-21T04:43:49;16.97;;;5.20;;
16975;SDS011;8604;48.148;-1.786;2023-08-21T04:46:17;8.93;;;4.70;;
16975;SDS011;8604;48.148;-1.786;2023-08-21T04:48:48;8.60;;;4.93;;
16975;SDS011;8604;48.148;-1.786;2023-08-21T04:51:17;6.90;;;4.60;;
16975;SDS011;8604;48.148;-1.786;2023-08-21T04:53:46;6.33;;;4.07;;
16975;SDS011;8604;48.148;-1.786;2023-08-21T04:56:18;6.93;;;4.03;;
16975;SDS011;8604;48.148;-1.786;2023-08-21T04:58:47;7.57;;;3.93;;
16975;SDS011;8604;48.148;-1.786;2023-08-21T05:01:17;6.17;;;3.90;;
16975;SDS011;8604;48.148;-1.786;2023-08-21T05:03:49;7.87;;;4.40;;
16975;SDS011;8604;48.148;-1.786;2023-08-21T05:06:18;27.47;;;5.10;;
16975;SDS011;8604;48.148;-1.786;2023-08-21T05:08:46;5.60;;;4.20;;
16975;SDS011;8604;48.148;-1.786;2023-08-21T05:11:15;6.60;;;4.30;;
16975;SDS011;8604;48.148;-1.786;2023-08-21T05:13:43;5.40;;;3.83;;
16975;SDS011;8604;48.148;-1.786;2023-08-21T05:16:13;5.20;;;3.77;;
16975;SDS011;8604;48.148;-1.786;2023-08-21T05:18:42;11.23;;;3.83;;
16975;SDS011;8604;48.148;-1.786;2023-08-21T05:21:12;27.53;;;4.90;;
16975;SDS011;8604;48.148;-1.786;2023-08-21T05:23:42;5.73;;;3.80;;
16975;SDS011;8604;48.148;-1.786;2023-08-21T05:26:10;10.97;;;4.13;;
16975;SDS011;8604;48.148;-1.786;2023-08-21T05:28:39;5.37;;;3.67;;
16975;SDS011;8604;48.148;-1.786;2023-08-21T05:31:07;7.93;;;4.00;;
16975;SDS011;8604;48.148;-1.786;2023-08-21T05:33:50;9.23;;;4.30;;
16975;SDS011;8604;48.148;-1.786;2023-08-21T05:36:19;7.80;;;3.97;;
16975;SDS011;8604;48.148;-1.786;2023-08-21T05:38:48;11.43;;;4.53;;
16975;SDS011;8604;48.148;-1.786;2023-08-21T05:41:18;5.27;;;3.67;;
16975;SDS011;8604;48.148;-1.786;2023-08-21T05:43:47;6.03;;;4.50;;
16975;SDS011;8604;48.148;-1.786;2023-08-21T05:46:31;5.90;;;3.90;;
16975;SDS011;8604;48.148;-1.786;2023-08-21T05:49:40;5.33;;;3.50;;
16975;SDS011;8604;48.148;-1.786;2023-08-21T05:52:13;7.23;;;4.20;;
16975;SDS011;8604;48.148;-1.786;2023-08-21T05:55:00;5.10;;;3.90;;
16975;SDS011;8604;48.148;-1.786;2023-08-21T05:57:44;7.37;;;4.20;;
16975;SDS011;8604;48.148;-1.786;2023-08-21T06:00:26;6.77;;;3.90;;
16975;SDS011;8604;48.148;-1.786;2023-08-21T06:03:24;5.30;;;3.57;;
16975;SDS011;8604;48.148;-1.786;2023-08-21T06:06:29;6.20;;;3.60;;
16975;SDS011;8604;48.148;-1.786;2023-08-21T06:09:33;6.93;;;3.67;;
16975;SDS011;8604;48.148;-1.786;2023-08-21T06:12:18;19.00;;;4.10;;
16975;SDS011;8604;48.148;-1.786;2023-08-21T06:15:31;7.07;;;3.90;;
16975;SDS011;8604;48.148;-1.786;2023-08-21T06:18:05;6.53;;;4.10;;
16975;SDS011;8604;48.148;-1.786;2023-08-21T06:20:48;15.63;;;4.73;;
16975;SDS011;8604;48.148;-1.786;2023-08-21T06:23:34;5.37;;;3.23;;
16975;SDS011;8604;48.148;-1.786;2023-08-21T06:26:10;6.50;;;3.90;;
16975;SDS011;8604;48.148;-1.786;2023-08-21T06:28:50;5.07;;;3.53;;
16975;SDS011;8604;48.148;-1.786;2023-08-21T06:31:25;13.87;;;4.23;;
16975;SDS011;8604;48.148;-1.786;2023-08-21T06:34:31;5.87;;;3.60;;
16975;SDS011;8604;48.148;-1.786;2023-08-21T06:37:03;6.70;;;3.90;;
16975;SDS011;8604;48.148;-1.786;2023-08-21T06:40:05;4.60;;;3.20;;
16975;SDS011;8604;48.148;-1.786;2023-08-21T06:42:55;5.53;;;3.27;;
16975;SDS011;8604;48.148;-1.786;2023-08-21T06:46:03;6.47;;;4.27;;
16975;SDS011;8604;48.148;-1.786;2023-08-21T06:48:39;9.43;;;4.63;;
16975;SDS011;8604;48.148;-1.786;2023-08-21T06:51:08;7.27;;;4.63;;
16975;SDS011;8604;48.148;-1.786;2023-08-21T06:53:39;7.33;;;4.30;;
16975;SDS011;8604;48.148;-1.786;2023-08-21T06:56:07;4.47;;;3.20;;
16975;SDS011;8604;48.148;-1.786;2023-08-21T06:58:37;6.23;;;4.20;;
16975;SDS011;8604;48.148;-1.786;2023-08-21T07:01:05;6.37;;;4.20;;
16975;SDS011;8604;48.148;-1.786;2023-08-21T07:03:34;6.63;;;3.90;;
16975;SDS011;8604;48.148;-1.786;2023-08-21T07:06:02;4.60;;;3.50;;
16975;SDS011;8604;48.148;-1.786;2023-08-21T07:08:31;8.90;;;7.63;;
16975;SDS011;8604;48.148;-1.786;2023-08-21T07:11:01;7.23;;;3.67;;
16975;SDS011;8604;48.148;-1.786;2023-08-21T07:13:31;6.10;;;3.50;;
16975;SDS011;8604;48.148;-1.786;2023-08-21T07:16:01;5.83;;;3.37;;
16975;SDS011;8604;48.148;-1.786;2023-08-21T07:18:31;8.53;;;4.00;;
16975;SDS011;8604;48.148;-1.786;2023-08-21T07:21:00;7.23;;;4.07;;
16975;SDS011;8604;48.148;-1.786;2023-08-21T07:23:44;8.87;;;3.73;;
16975;SDS011;8604;48.148;-1.786;2023-08-21T07:26:12;5.80;;;3.37;;
16975;SDS011;8604;48.148;-1.786;2023-08-21T07:28:41;6.43;;;3.40;;
16975;SDS011;8604;48.148;-1.786;2023-08-21T07:31:11;7.57;;;3.80;;
16975;SDS011;8604;48.148;-1.786;2023-08-21T07:33:39;8.57;;;4.23;;
16975;SDS011;8604;48.148;-1.786;2023-08-21T07:36:08;7.43;;;3.90;;
16975;SDS011;8604;48.148;-1.786;2023-08-21T07:38:43;7.73;;;4.20;;
16975;SDS011;8604;48.148;-1.786;2023-08-21T07:41:12;7.07;;;3.70;;
16975;SDS011;8604;48.148;-1.786;2023-08-21T07:43:41;8.63;;;4.13;;
16975;SDS011;8604;48.148;-1.786;2023-08-21T07:46:12;6.87;;;3.83;;
16975;SDS011;8604;48.148;-1.786;2023-08-21T07:48:43;5.43;;;3.60;;
16975;SDS011;8604;48.148;-1.786;2023-08-21T07:51:12;7.53;;;3.80;;
16975;SDS011;8604;48.148;-1.786;2023-08-21T07:53:41;6.50;;;3.50;;
16975;SDS011;8604;48.148;-1.786;2023-08-21T07:56:10;6.57;;;3.42;;
16975;SDS011;8604;48.148;-1.786;2023-08-21T07:58:39;7.60;;;3.88;;
16975;SDS011;8604;48.148;-1.786;2023-08-21T08:01:07;6.45;;;3.20;;
16975;SDS011;8604;48.148;-1.786;2023-08-21T08:03:37;6.82;;;3.20;;
16975;SDS011;8604;48.148;-1.786;2023-08-21T08:06:06;5.68;;;2.90;;
16975;SDS011;8604;48.148;-1.786;2023-08-21T08:08:35;5.70;;;2.63;;
16975;SDS011;8604;48.148;-1.786;2023-08-21T08:11:03;5.60;;;2.50;;
16975;SDS011;8604;48.148;-1.786;2023-08-21T08:13:32;6.80;;;2.50;;
16975;SDS011;8604;48.148;-1.786;2023-08-21T08:16:01;6.25;;;2.60;;
16975;SDS011;8604;48.148;-1.786;2023-08-21T08:18:29;5.93;;;2.53;;
16975;SDS011;8604;48.148;-1.786;2023-08-21T08:20:59;5.40;;;2.35;;
16975;SDS011;8604;48.148;-1.786;2023-08-21T08:23:28;8.07;;;2.80;;
16975;SDS011;8604;48.148;-1.786;2023-08-21T08:25:57;7.32;;;3.40;;
16975;SDS011;8604;48.148;-1.786;2023-08-21T08:28:25;6.57;;;2.78;;
16975;SDS011;8604;48.148;-1.786;2023-08-21T08:30:54;4.97;;;2.17;;
16975;SDS011;8604;48.148;-1.786;2023-08-21T08:33:22;5.07;;;1.98;;
16975;SDS011;8604;48.148;-1.786;2023-08-21T08:35:51;5.55;;;2.20;;
16975;SDS011;8604;48.148;-1.786;2023-08-21T08:38:21;5.68;;;2.25;;
16975;SDS011;8604;48.148;-1.786;2023-08-21T08:40:49;5.70;;;2.30;;
16975;SDS011;8604;48.148;-1.786;2023-08-21T08:43:22;5.32;;;2.10;;
16975;SDS011;8604;48.148;-1.786;2023-08-21T08:45:53;4.63;;;1.95;;
16975;SDS011;8604;48.148;-1.786;2023-08-21T08:48:24;3.92;;;2.13;;
16975;SDS011;8604;48.148;-1.786;2023-08-21T08:50:53;7.07;;;2.42;;
16975;SDS011;8604;48.148;-1.786;2023-08-21T08:53:26;5.57;;;2.13;;
16975;SDS011;8604;48.148;-1.786;2023-08-21T08:55:56;3.78;;;2.05;;
16975;SDS011;8604;48.148;-1.786;2023-08-21T08:58:25;5.68;;;2.00;;
16975;SDS011;8604;48.148;-1.786;2023-08-21T09:00:54;6.57;;;2.55;;
16975;SDS011;8604;48.148;-1.786;2023-08-21T09:03:22;6.72;;;2.10;;
16975;SDS011;8604;48.148;-1.786;2023-08-21T09:05:51;5.00;;;2.22;;
16975;SDS011;8604;48.148;-1.786;2023-08-21T09:08:20;4.93;;;1.90;;
16975;SDS011;8604;48.148;-1.786;2023-08-21T09:10:50;5.75;;;2.17;;
16975;SDS011;8604;48.148;-1.786;2023-08-21T09:13:19;6.20;;;2.33;;
16975;SDS011;8604;48.148;-1.786;2023-08-21T09:15:48;6.70;;;2.38;;
16975;SDS011;8604;48.148;-1.786;2023-08-21T09:18:21;6.28;;;2.03;;
16975;SDS011;8604;48.148;-1.786;2023-08-21T09:20:50;7.80;;;2.15;;
16975;SDS011;8604;48.148;-1.786;2023-08-21T09:23:18;7.15;;;2.17;;
16975;SDS011;8604;48.148;-1.786;2023-08-21T09:25:48;6.00;;;2.15;;
16975;SDS011;8604;48.148;-1.786;2023-08-21T09:28:18;6.90;;;2.20;;
16975;SDS011;8604;48.148;-1.786;2023-08-21T09:30:49;7.82;;;2.28;;
16975;SDS011;8604;48.148;-1.786;2023-08-21T09:33:19;6.10;;;2.03;;
16975;SDS011;8604;48.148;-1.786;2023-08-21T09:35:49;4.90;;;1.70;;
16975;SDS011;8604;48.148;-1.786;2023-08-21T09:38:20;7.05;;;2.10;;
16975;SDS011;8604;48.148;-1.786;2023-08-21T09:40:53;7.05;;;2.20;;
16975;SDS011;8604;48.148;-1.786;2023-08-21T09:43:23;8.60;;;2.10;;
16975;SDS011;8604;48.148;-1.786;2023-08-21T09:45:52;4.65;;;2.03;;
16975;SDS011;8604;48.148;-1.786;2023-08-21T09:48:23;5.03;;;1.75;;
16975;SDS011;8604;48.148;-1.786;2023-08-21T09:50:53;6.90;;;2.15;;
16975;SDS011;8604;48.148;-1.786;2023-08-21T09:53:22;5.78;;;1.90;;
16975;SDS011;8604;48.148;-1.786;2023-08-21T09:56:01;5.40;;;2.10;;
16975;SDS011;8604;48.148;-1.786;2023-08-21T09:58:30;6.43;;;2.38;;
16975;SDS011;8604;48.148;-1.786;2023-08-21T10:00:59;5.00;;;1.90;;
16975;SDS011;8604;48.148;-1.786;2023-08-21T10:03:29;6.68;;;2.22;;
16975;SDS011;8604;48.148;-1.786;2023-08-21T10:05:59;5.38;;;1.90;;
16975;SDS011;8604;48.148;-1.786;2023-08-21T10:08:29;4.93;;;1.92;;
16975;SDS011;8604;48.148;-1.786;2023-08-21T10:11:00;4.78;;;2.03;;
16975;SDS011;8604;48.148;-1.786;2023-08-21T10:13:30;4.80;;;2.00;;
16975;SDS011;8604;48.148;-1.786;2023-08-21T10:16:00;5.30;;;2.60;;
16975;SDS011;8604;48.148;-1.786;2023-08-21T10:18:29;3.63;;;1.65;;
16975;SDS011;8604;48.148;-1.786;2023-08-21T10:21:10;4.88;;;1.80;;
16975;SDS011;8604;48.148;-1.786;2023-08-21T10:23:39;6.18;;;2.60;;
16975;SDS011;8604;48.148;-1.786;2023-08-21T10:26:13;5.50;;;1.92;;
16975;SDS011;8604;48.148;-1.786;2023-08-21T10:28:43;6.00;;;2.13;;
16975;SDS011;8604;48.148;-1.786;2023-08-21T10:31:25;5.38;;;1.73;;
16975;SDS011;8604;48.148;-1.786;2023-08-21T10:33:59;4.78;;;1.95;;
16975;SDS011;8604;48.148;-1.786;2023-08-21T10:39:32;4.72;;;1.92;;
16975;SDS011;8604;48.148;-1.786;2023-08-21T10:42:06;6.88;;;2.40;;
16975;SDS011;8604;48.148;-1.786;2023-08-21T10:44:37;9.70;;;5.97;;
16975;SDS011;8604;48.148;-1.786;2023-08-21T10:47:18;5.45;;;2.20;;
16975;SDS011;8604;48.148;-1.786;2023-08-21T10:49:49;4.65;;;1.90;;
16975;SDS011;8604;48.148;-1.786;2023-08-21T10:52:22;6.40;;;2.92;;
16975;SDS011;8604;48.148;-1.786;2023-08-21T10:54:52;5.72;;;2.40;;
16975;SDS011;8604;48.148;-1.786;2023-08-21T10:57:23;3.65;;;1.80;;
16975;SDS011;8604;48.148;-1.786;2023-08-21T10:59:56;5.20;;;1.92;;
16975;SDS011;8604;48.148;-1.786;2023-08-21T11:02:26;5.78;;;1.83;;
16975;SDS011;8604;48.148;-1.786;2023-08-21T11:04:57;3.70;;;1.75;;
16975;SDS011;8604;48.148;-1.786;2023-08-21T11:07:26;15.02;;;13.50;;
16975;SDS011;8604;48.148;-1.786;2023-08-21T11:09:55;5.45;;;2.40;;
16975;SDS011;8604;48.148;-1.786;2023-08-21T11:12:25;5.72;;;1.80;;
16975;SDS011;8604;48.148;-1.786;2023-08-21T11:14:54;4.85;;;2.67;;
16975;SDS011;8604;48.148;-1.786;2023-08-21T11:17:22;5.60;;;2.53;;
16975;SDS011;8604;48.148;-1.786;2023-08-21T11:19:51;5.47;;;2.50;;
16975;SDS011;8604;48.148;-1.786;2023-08-21T11:22:19;4.35;;;1.80;;
16975;SDS011;8604;48.148;-1.786;2023-08-21T11:24:48;5.20;;;1.92;;
16975;SDS011;8604;48.148;-1.786;2023-08-21T11:27:18;4.18;;;1.60;;
16975;SDS011;8604;48.148;-1.786;2023-08-21T11:29:52;5.05;;;1.77;;
16975;SDS011;8604;48.148;-1.786;2023-08-21T11:32:22;6.47;;;2.50;;
16975;SDS011;8604;48.148;-1.786;2023-08-21T11:34:51;6.57;;;1.73;;
16975;SDS011;8604;48.148;-1.786;2023-08-21T11:37:21;4.80;;;1.90;;
16975;SDS011;8604;48.148;-1.786;2023-08-21T11:39:51;4.60;;;2.08;;
16975;SDS011;8604;48.148;-1.786;2023-08-21T11:42:21;6.47;;;2.00;;
16975;SDS011;8604;48.148;-1.786;2023-08-21T11:44:58;5.45;;;2.20;;
16975;SDS011;8604;48.148;-1.786;2023-08-21T11:47:32;4.38;;;1.58;;
16975;SDS011;8604;48.148;-1.786;2023-08-21T11:50:03;4.07;;;1.85;;
16975;SDS011;8604;48.148;-1.786;2023-08-21T11:52:33;4.10;;;1.60;;
16975;SDS011;8604;48.148;-1.786;2023-08-21T11:55:07;4.95;;;1.88;;
16975;SDS011;8604;48.148;-1.786;2023-08-21T11:57:45;5.97;;;1.83;;
16975;SDS011;8604;48.148;-1.786;2023-08-21T12:00:16;5.57;;;1.90;;
16975;SDS011;8604;48.148;-1.786;2023-08-21T12:02:54;4.90;;;1.70;;
16975;SDS011;8604;48.148;-1.786;2023-08-21T12:05:24;7.18;;;1.95;;
16975;SDS011;8604;48.148;-1.786;2023-08-21T12:07:53;5.25;;;1.98;;
16975;SDS011;8604;48.148;-1.786;2023-08-21T12:10:23;4.80;;;1.83;;
16975;SDS011;8604;48.148;-1.786;2023-08-21T12:12:52;4.63;;;1.85;;
16975;SDS011;8604;48.148;-1.786;2023-08-21T12:15:22;5.35;;;1.80;;
16975;SDS011;8604;48.148;-1.786;2023-08-21T12:17:50;5.22;;;1.73;;
16975;SDS011;8604;48.148;-1.786;2023-08-21T12:20:19;7.07;;;1.83;;
16975;SDS011;8604;48.148;-1.786;2023-08-21T12:22:48;4.28;;;1.90;;
16975;SDS011;8604;48.148;-1.786;2023-08-21T12:25:16;5.15;;;1.92;;
16975;SDS011;8604;48.148;-1.786;2023-08-21T12:27:45;6.18;;;1.90;;
16975;SDS011;8604;48.148;-1.786;2023-08-21T12:30:28;5.82;;;1.90;;
16975;SDS011;8604;48.148;-1.786;2023-08-21T12:32:56;5.88;;;1.85;;
16975;SDS011;8604;48.148;-1.786;2023-08-21T12:35:42;4.18;;;1.63;;
16975;SDS011;8604;48.148;-1.786;2023-08-21T12:38:11;4.93;;;1.73;;
16975;SDS011;8604;48.148;-1.786;2023-08-21T12:40:40;4.68;;;1.58;;
16975;SDS011;8604;48.148;-1.786;2023-08-21T12:43:08;3.65;;;1.55;;
16975;SDS011;8604;48.148;-1.786;2023-08-21T12:45:38;5.13;;;1.80;;
16975;SDS011;8604;48.148;-1.786;2023-08-21T12:48:06;6.72;;;1.80;;
16975;SDS011;8604;48.148;-1.786;2023-08-21T12:50:35;5.03;;;1.50;;
16975;SDS011;8604;48.148;-1.786;2023-08-21T12:53:03;6.50;;;1.73;;
16975;SDS011;8604;48.148;-1.786;2023-08-21T12:55:32;4.07;;;1.77;;
16975;SDS011;8604;48.148;-1.786;2023-08-21T12:58:00;6.00;;;1.80;;
16975;SDS011;8604;48.148;-1.786;2023-08-21T13:00:28;3.83;;;1.50;;
16975;SDS011;8604;48.148;-1.786;2023-08-21T13:03:00;5.28;;;1.73;;
16975;SDS011;8604;48.148;-1.786;2023-08-21T13:05:30;4.88;;;1.75;;
16975;SDS011;8604;48.148;-1.786;2023-08-21T13:07:58;4.60;;;1.60;;
16975;SDS011;8604;48.148;-1.786;2023-08-21T13:10:26;5.80;;;1.60;;
16975;SDS011;8604;48.148;-1.786;2023-08-21T13:12:55;4.65;;;1.75;;
16975;SDS011;8604;48.148;-1.786;2023-08-21T13:15:23;5.88;;;1.98;;
16975;SDS011;8604;48.148;-1.786;2023-08-21T13:17:52;4.22;;;1.55;;
16975;SDS011;8604;48.148;-1.786;2023-08-21T13:20:21;4.05;;;1.60;;
16975;SDS011;8604;48.148;-1.786;2023-08-21T13:22:50;5.28;;;1.50;;
16975;SDS011;8604;48.148;-1.786;2023-08-21T13:25:20;5.43;;;1.75;;
16975;SDS011;8604;48.148;-1.786;2023-08-21T13:27:50;4.72;;;1.88;;
16975;SDS011;8604;48.148;-1.786;2023-08-21T13:30:19;5.47;;;1.50;;
16975;SDS011;8604;48.148;-1.786;2023-08-21T13:32:48;4.88;;;1.60;;
16975;SDS011;8604;48.148;-1.786;2023-08-21T13:35:17;4.70;;;1.50;;
16975;SDS011;8604;48.148;-1.786;2023-08-21T13:37:49;3.47;;;1.42;;
16975;SDS011;8604;48.148;-1.786;2023-08-21T13:40:18;5.60;;;1.88;;
16975;SDS011;8604;48.148;-1.786;2023-08-21T13:42:47;4.10;;;1.33;;
16975;SDS011;8604;48.148;-1.786;2023-08-21T13:45:16;4.68;;;1.35;;
16975;SDS011;8604;48.148;-1.786;2023-08-21T13:47:45;4.03;;;1.38;;
16975;SDS011;8604;48.148;-1.786;2023-08-21T13:50:15;4.78;;;1.50;;
16975;SDS011;8604;48.148;-1.786;2023-08-21T13:52:46;4.75;;;1.50;;
16975;SDS011;8604;48.148;-1.786;2023-08-21T13:55:16;5.05;;;1.70;;
16975;SDS011;8604;48.148;-1.786;2023-08-21T13:57:44;3.38;;;1.50;;
16975;SDS011;8604;48.148;-1.786;2023-08-21T14:00:13;3.58;;;1.40;;
16975;SDS011;8604;48.148;-1.786;2023-08-21T14:02:44;3.60;;;1.50;;
16975;SDS011;8604;48.148;-1.786;2023-08-21T14:05:13;2.67;;;1.20;;
16975;SDS011;8604;48.148;-1.786;2023-08-21T14:07:41;4.75;;;1.33;;
16975;SDS011;8604;48.148;-1.786;2023-08-21T14:10:09;4.30;;;1.50;;
16975;SDS011;8604;48.148;-1.786;2023-08-21T14:12:41;2.85;;;1.20;;
16975;SDS011;8604;48.148;-1.786;2023-08-21T14:15:10;2.83;;;1.20;;
16975;SDS011;8604;48.148;-1.786;2023-08-21T14:17:38;3.95;;;1.30;;
16975;SDS011;8604;48.148;-1.786;2023-08-21T14:20:09;4.97;;;1.50;;
16975;SDS011;8604;48.148;-1.786;2023-08-21T14:22:39;4.97;;;1.60;;
16975;SDS011;8604;48.148;-1.786;2023-08-21T14:25:08;2.28;;;1.20;;
16975;SDS011;8604;48.148;-1.786;2023-08-21T14:27:37;4.50;;;1.20;;
16975;SDS011;8604;48.148;-1.786;2023-08-21T14:30:08;4.03;;;1.42;;
16975;SDS011;8604;48.148;-1.786;2023-08-21T14:32:36;5.47;;;1.48;;
16975;SDS011;8604;48.148;-1.786;2023-08-21T14:35:05;4.13;;;1.48;;
16975;SDS011;8604;48.148;-1.786;2023-08-21T14:37:35;3.60;;;1.40;;
16975;SDS011;8604;48.148;-1.786;2023-08-21T14:40:05;4.47;;;1.60;;
16975;SDS011;8604;48.148;-1.786;2023-08-21T14:42:36;3.30;;;1.45;;
16975;SDS011;8604;48.148;-1.786;2023-08-21T14:45:07;3.97;;;1.52;;
16975;SDS011;8604;48.148;-1.786;2023-08-21T14:47:36;4.63;;;1.70;;
16975;SDS011;8604;48.148;-1.786;2023-08-21T14:50:05;2.35;;;1.17;;
16975;SDS011;8604;48.148;-1.786;2023-08-21T14:52:34;5.60;;;1.63;;
16975;SDS011;8604;48.148;-1.786;2023-08-21T14:55:03;3.15;;;1.20;;
16975;SDS011;8604;48.148;-1.786;2023-08-21T14:57:32;5.72;;;1.45;;
16975;SDS011;8604;48.148;-1.786;2023-08-21T15:00:00;3.08;;;1.20;;
16975;SDS011;8604;48.148;-1.786;2023-08-21T15:02:31;4.40;;;1.40;;
16975;SDS011;8604;48.148;-1.786;2023-08-21T15:05:01;4.78;;;1.35;;
16975;SDS011;8604;48.148;-1.786;2023-08-21T15:07:32;4.47;;;1.50;;
16975;SDS011;8604;48.148;-1.786;2023-08-21T15:10:00;2.90;;;1.40;;